LFBG/CNG METAR and TAF weather

Enter ICAO airport designator
Station Type Date Time Source
LFBG METAR 2022/01/29 01:30 UTC NOAA

LFBG 290130Z AUTO 07005KT 4800 BR OVC003 04/04 Q1038


Station Type Date Time Source
LFBG Decoded METAR 2022/01/29 01:30 UTC NOAA

Cognac, France (LFBG) 45-40N 000-19W 31M
Jan 28, 2022 - 08:30 PM EST / 2022.01.29 0130 UTC
Wind: from the ENE (070 degrees) at 6 MPH (5 KT):0
Visibility: 2 mile(s):0
Sky conditions: overcast
Weather: mist
Temperature: 39 F (4 C)
Dew Point: 39 F (4 C)
Relative Humidity: 100%
Pressure (altimeter): 30.65 in. Hg (1038 hPa)
ob: LFBG 290130Z AUTO 07005KT 4800 BR OVC003 04/04 Q1038
cycle: 1

Station Type Date Time Source
LFBG TAF 2022/01/28 15:36 UTC NOAA

TAF TAF LFBG 281400Z 2815/2915 01008KT CAVOK
BECMG 2822/2824 4000 BR BKN010
TEMPO 2900/2903 2000 OVC006
TEMPO 2912/2915 9999 SCT015

Example: see airport list